createdAt,value
2019-02-24T00:00:53.141Z,65.78
2019-02-24T00:01:53.167Z,66.07
2019-02-24T00:02:53.195Z,66.64
2019-02-24T00:03:54.668Z,65.88
2019-02-24T00:04:53.247Z,65.41
2019-02-24T00:05:53.271Z,65.78
2019-02-24T00:06:53.298Z,64.93
2019-02-24T00:07:53.324Z,65.41
2019-02-24T00:08:53.347Z,65.78
2019-02-24T00:09:53.374Z,66.54
2019-02-24T00:10:53.402Z,67.11
2019-02-24T00:11:53.427Z,67.30
2019-02-24T00:12:53.450Z,67.30
2019-02-24T00:13:53.477Z,67.21
2019-02-24T00:14:53.503Z,67.21
2019-02-24T00:15:53.530Z,67.40
2019-02-24T00:16:53.554Z,66.93
2019-02-24T00:17:53.582Z,67.40
2019-02-24T00:18:53.606Z,67.11
2019-02-24T00:19:53.632Z,64.84
2019-02-24T00:20:53.660Z,64.81
2019-02-24T00:21:53.683Z,65.84
2019-02-24T00:22:53.713Z,67.46
2019-02-24T00:23:53.734Z,69.07
2019-02-24T00:24:53.761Z,70.11
2019-02-24T00:25:53.785Z,69.64
2019-02-24T00:26:53.811Z,70.20
2019-02-24T00:27:53.837Z,70.01
2019-02-24T00:28:53.864Z,69.07
2019-02-24T00:29:53.887Z,70.78
2019-02-24T00:30:53.913Z,70.20
2019-02-24T00:31:53.941Z,68.02
2019-02-24T00:32:53.964Z,67.93
2019-02-24T00:33:53.991Z,66.32
2019-02-24T00:34:54.015Z,65.66
2019-02-24T00:35:54.042Z,65.12
2019-02-24T00:36:54.065Z,65.66
2019-02-24T00:37:54.090Z,64.81
2019-02-24T00:38:54.115Z,64.14
2019-02-24T00:39:54.141Z,64.90
2019-02-24T00:40:54.167Z,66.70
2019-02-24T00:41:54.193Z,68.21
2019-02-24T00:42:54.218Z,69.92
2019-02-24T00:43:54.246Z,69.17
2019-02-24T00:44:54.270Z,68.21
2019-02-24T00:45:54.295Z,69.41
2019-02-24T00:46:54.320Z,70.64
2019-02-24T00:47:54.346Z,72.06
2019-02-24T00:48:54.369Z,73.30
2019-02-24T00:49:54.395Z,74.90
2019-02-24T00:50:54.422Z,75.66
2019-02-24T00:51:54.447Z,76.95
2019-02-24T00:52:54.472Z,77.51
2019-02-24T00:53:54.498Z,77.99
2019-02-24T00:54:54.523Z,76.86
2019-02-24T00:55:54.548Z,77.99
2019-02-24T00:56:54.572Z,78.37
2019-02-24T00:57:54.599Z,78.27
2019-02-24T00:58:54.628Z,78.37
2019-02-24T00:59:54.649Z,78.85
2019-02-24T01:00:54.675Z,78.46
2019-02-24T01:01:54.699Z,77.89
2019-02-24T01:02:54.726Z,79.41
2019-02-24T01:03:54.751Z,80.07
2019-02-24T01:04:54.774Z,79.50
2019-02-24T01:05:54.800Z,78.99
2019-02-24T01:06:54.825Z,79.18
2019-02-24T01:07:54.851Z,79.37
2019-02-24T01:08:54.875Z,79.28
2019-02-24T01:09:54.902Z,78.90
2019-02-24T01:10:54.927Z,79.09
2019-02-24T01:11:54.951Z,79.18
2019-02-24T01:12:54.977Z,79.66
2019-02-24T01:13:55.002Z,80.04
2019-02-24T01:14:55.028Z,80.41
2019-02-24T01:15:55.052Z,80.32
2019-02-24T01:16:55.075Z,80.60
2019-02-24T01:17:55.103Z,81.36
2019-02-24T01:18:55.130Z,81.07
2019-02-24T01:19:55.155Z,81.07
2019-02-24T01:20:55.178Z,80.04
2019-02-24T01:21:55.201Z,80.13
2019-02-24T01:22:55.227Z,81.07
2019-02-24T01:23:55.254Z,80.88
2019-02-24T01:24:55.275Z,81.07
2019-02-24T01:25:55.302Z,81.55
2019-02-24T01:26:55.327Z,79.47
2019-02-24T01:27:55.351Z,78.23
2019-02-24T01:28:55.377Z,78.52
2019-02-24T01:29:55.402Z,80.22
2019-02-24T01:30:55.428Z,81.93
2019-02-24T01:31:55.453Z,83.25
2019-02-24T01:32:55.475Z,82.68
2019-02-24T01:33:55.505Z,83.25
2019-02-24T01:34:55.526Z,83.63
2019-02-24T01:35:55.555Z,83.15
2019-02-24T01:36:55.575Z,81.83
2019-02-24T01:37:55.600Z,81.17
2019-02-24T01:38:55.627Z,82.12
2019-02-24T01:39:55.651Z,82.12
2019-02-24T01:40:55.676Z,82.68
2019-02-24T01:41:55.700Z,83.06
2019-02-24T01:42:55.727Z,83.44
2019-02-24T01:43:55.750Z,84.20
2019-02-24T01:44:55.774Z,83.53
2019-02-24T01:45:55.799Z,83.68
2019-02-24T01:46:55.826Z,82.78
2019-02-24T01:47:55.849Z,84.25
2019-02-24T01:48:55.873Z,85.19
2019-02-24T01:49:55.898Z,86.71
2019-02-24T01:50:55.927Z,86.56
2019-02-24T01:51:55.949Z,85.19
2019-02-24T01:52:56.005Z,83.97
2019-02-24T01:53:55.997Z,84.91
2019-02-24T01:54:56.022Z,85.95
2019-02-24T01:55:56.046Z,85.38
2019-02-24T01:56:56.072Z,84.72
2019-02-24T01:57:56.096Z,83.78
2019-02-24T01:58:56.121Z,83.97
2019-02-24T01:59:56.147Z,83.21
2019-02-24T02:00:56.170Z,83.40
2019-02-24T02:01:56.194Z,84.25
2019-02-24T02:02:56.218Z,84.81
2019-02-24T02:03:56.245Z,83.87
2019-02-24T02:04:56.272Z,82.07
2019-02-24T02:05:56.293Z,81.41
2019-02-24T02:06:56.319Z,83.40
2019-02-24T02:07:56.347Z,84.06
2019-02-24T02:08:56.366Z,83.78
2019-02-24T02:09:56.391Z,83.97
2019-02-24T02:10:56.417Z,83.87
2019-02-24T02:11:56.440Z,84.72
2019-02-24T02:12:57.444Z,84.72
2019-02-24T02:13:56.489Z,84.72
2019-02-24T02:14:56.513Z,84.91
2019-02-24T02:15:56.539Z,84.63
2019-02-24T02:16:56.562Z,84.91
2019-02-24T02:17:56.587Z,85.47
2019-02-24T02:18:56.614Z,85.66
2019-02-24T02:19:56.637Z,85.00
2019-02-24T02:20:56.659Z,85.38
2019-02-24T02:21:56.683Z,86.14
2019-02-24T02:22:56.710Z,86.99
2019-02-24T02:23:56.734Z,86.61
2019-02-24T02:24:56.758Z,86.71
2019-02-24T02:25:56.783Z,85.95
2019-02-24T02:26:56.809Z,85.76
2019-02-24T02:27:56.831Z,85.38
2019-02-24T02:28:56.905Z,84.91
2019-02-24T02:29:56.880Z,85.00
2019-02-24T02:30:56.907Z,85.28
2019-02-24T02:31:57.003Z,85.76
2019-02-24T02:32:56.954Z,86.52
2019-02-24T02:33:56.980Z,87.74
2019-02-24T02:34:57.003Z,87.70
2019-02-24T02:35:57.028Z,88.12
2019-02-24T02:36:57.053Z,88.41
2019-02-24T02:37:57.074Z,88.36
2019-02-24T02:38:57.099Z,87.98
2019-02-24T02:39:57.123Z,87.23
2019-02-24T02:40:57.147Z,86.38
2019-02-24T02:41:57.175Z,86.47
2019-02-24T02:42:57.202Z,87.13
2019-02-24T02:43:57.219Z,87.51
2019-02-24T02:44:57.244Z,87.98
2019-02-24T02:45:57.268Z,88.17
2019-02-24T02:46:57.292Z,89.59
2019-02-24T02:47:57.317Z,90.01
2019-02-24T02:48:57.341Z,90.20
2019-02-24T02:49:57.366Z,91.01
2019-02-24T02:50:57.394Z,91.29
2019-02-24T02:51:57.416Z,91.72
2019-02-24T02:52:57.437Z,92.80
2019-02-24T02:53:57.461Z,92.85
2019-02-24T02:54:57.488Z,92.38
2019-02-24T02:55:57.509Z,91.15
2019-02-24T02:56:57.533Z,89.64
2019-02-24T02:57:57.556Z,88.69
2019-02-24T02:58:57.581Z,87.74
2019-02-24T02:59:57.606Z,87.79
2019-02-24T03:00:57.629Z,87.46
2019-02-24T03:01:57.654Z,87.89
2019-02-24T03:02:57.678Z,88.98
2019-02-24T03:03:57.710Z,88.93
2019-02-24T03:04:57.725Z,88.46
2019-02-24T03:05:57.750Z,89.03
2019-02-24T03:06:57.774Z,89.50
2019-02-24T03:07:57.798Z,89.59
2019-02-24T03:08:57.821Z,89.78
2019-02-24T03:09:57.847Z,89.03
2019-02-24T03:10:57.870Z,90.06
2019-02-24T03:11:57.898Z,91.29
2019-02-24T03:12:57.918Z,91.86
2019-02-24T03:13:57.947Z,90.25
2019-02-24T03:14:57.999Z,89.59
2019-02-24T03:15:58.018Z,89.78
2019-02-24T03:16:58.014Z,89.87
2019-02-24T03:17:58.037Z,90.25
2019-02-24T03:18:58.063Z,90.06
2019-02-24T03:19:58.085Z,91.01
2019-02-24T03:20:58.109Z,91.86
2019-02-24T03:21:58.138Z,91.96
2019-02-24T03:22:58.171Z,92.24
2019-02-24T03:23:58.181Z,92.05
2019-02-24T03:24:58.206Z,92.33
2019-02-24T03:25:58.233Z,91.86
2019-02-24T03:26:58.253Z,91.86
2019-02-24T03:27:58.284Z,92.33
2019-02-24T03:29:04.174Z,92.80
2019-02-24T03:29:58.326Z,92.80
2019-02-24T03:30:58.349Z,92.05
2019-02-24T03:31:58.373Z,91.77
2019-02-24T03:32:58.396Z,92.05
2019-02-24T03:33:58.421Z,92.71
2019-02-24T03:34:58.445Z,92.52
2019-02-24T03:35:58.468Z,91.58
2019-02-24T03:36:58.491Z,91.96
2019-02-24T03:37:58.515Z,91.67
2019-02-24T03:38:58.539Z,91.39
2019-02-24T03:39:58.568Z,92.14
2019-02-24T03:40:58.588Z,92.14
2019-02-24T03:41:58.614Z,91.96
2019-02-24T03:42:58.635Z,91.39
2019-02-24T03:43:58.659Z,92.05
2019-02-24T03:44:58.733Z,92.43
2019-02-24T03:45:58.708Z,92.24
2019-02-24T03:46:58.730Z,91.29
2019-02-24T03:47:58.754Z,90.25
2019-02-24T03:48:58.778Z,91.10
2019-02-24T03:49:58.800Z,89.54
2019-02-24T03:50:58.877Z,87.65
2019-02-24T03:51:58.850Z,86.61
2019-02-24T03:52:58.874Z,85.47
2019-02-24T03:53:58.895Z,84.63
2019-02-24T03:54:58.927Z,83.59
2019-02-24T03:55:58.945Z,82.17
2019-02-24T03:56:58.966Z,81.17
2019-02-24T03:57:58.996Z,80.60
2019-02-24T03:58:59.015Z,80.04
2019-02-24T03:59:59.039Z,80.22
2019-02-24T04:00:59.061Z,79.28
2019-02-24T04:01:59.085Z,79.66
2019-02-24T04:02:59.106Z,79.56
2019-02-24T04:03:59.135Z,79.85
2019-02-24T04:04:59.155Z,79.37
2019-02-24T04:05:59.180Z,78.52
2019-02-24T04:06:59.203Z,79.28
2019-02-24T04:07:59.225Z,79.09
2019-02-24T04:08:59.251Z,78.33
2019-02-24T04:09:59.273Z,78.52
2019-02-24T04:10:59.296Z,79.66
2019-02-24T04:11:59.321Z,78.71
2019-02-24T04:12:59.345Z,78.52
2019-02-24T04:13:59.369Z,78.71
2019-02-24T04:14:59.392Z,79.56
2019-02-24T04:15:59.416Z,80.32
2019-02-24T04:16:59.441Z,80.13
2019-02-24T04:17:59.469Z,79.56
2019-02-24T04:18:59.488Z,81.26
2019-02-24T04:19:59.518Z,81.26
2019-02-24T04:20:59.535Z,81.55
2019-02-24T04:21:59.561Z,82.40
2019-02-24T04:22:59.582Z,82.87
2019-02-24T04:23:59.606Z,82.50
2019-02-24T04:24:59.629Z,81.64
2019-02-24T04:25:59.656Z,82.78
2019-02-24T04:26:59.678Z,83.21
2019-02-24T04:27:59.702Z,83.49
2019-02-24T04:28:59.726Z,83.21
2019-02-24T04:29:59.750Z,83.11
2019-02-24T04:30:59.773Z,82.92
2019-02-24T04:31:59.797Z,83.40
2019-02-24T04:32:59.820Z,83.59
2019-02-24T04:33:59.844Z,84.16
2019-02-24T04:34:59.869Z,84.91
2019-02-24T04:35:59.892Z,86.14
2019-02-24T04:36:59.918Z,87.04
2019-02-24T04:37:59.943Z,86.76
2019-02-24T04:38:59.964Z,87.23
2019-02-24T04:39:59.988Z,87.04
2019-02-24T04:41:00.013Z,86.76
2019-02-24T04:42:00.036Z,87.04
2019-02-24T04:43:00.061Z,87.51
2019-02-24T04:44:00.084Z,88.65
2019-02-24T04:45:00.275Z,88.36
2019-02-24T04:46:00.132Z,89.03
2019-02-24T04:47:00.155Z,89.31
2019-02-24T04:48:00.181Z,90.54
2019-02-24T04:49:00.201Z,90.73
2019-02-24T04:50:00.291Z,91.67
2019-02-24T04:51:00.251Z,91.58
2019-02-24T04:52:00.275Z,91.96
2019-02-24T04:53:00.306Z,91.67
2019-02-24T04:54:00.326Z,91.01
2019-02-24T04:55:00.405Z,90.06
2019-02-24T04:56:00.373Z,90.35
2019-02-24T04:57:00.392Z,89.50
2019-02-24T04:58:00.419Z,89.78
2019-02-24T04:59:00.442Z,89.87
2019-02-24T05:00:00.528Z,90.06
2019-02-24T05:01:00.488Z,90.44
2019-02-24T05:02:00.513Z,90.35
2019-02-24T05:03:00.535Z,90.54
2019-02-24T05:04:00.561Z,90.44
2019-02-24T05:05:00.584Z,89.69
2019-02-24T05:06:00.609Z,89.40
2019-02-24T05:07:00.633Z,89.22
2019-02-24T05:08:00.655Z,90.06
2019-02-24T05:09:00.679Z,90.25
2019-02-24T05:10:00.701Z,90.35
2019-02-24T05:11:00.725Z,90.91
2019-02-24T05:12:00.750Z,90.91
2019-02-24T05:13:00.772Z,91.48
2019-02-24T05:14:00.801Z,91.01
2019-02-24T05:15:00.819Z,91.48
2019-02-24T05:16:00.844Z,91.77
2019-02-24T05:17:00.868Z,92.05
2019-02-24T05:18:00.893Z,91.48
2019-02-24T05:19:00.915Z,90.91
2019-02-24T05:20:00.946Z,91.01
2019-02-24T05:21:00.961Z,90.54
2019-02-24T05:22:00.985Z,90.25
2019-02-24T05:23:01.010Z,91.01
2019-02-24T05:24:01.043Z,91.10
2019-02-24T05:25:01.056Z,91.10
2019-02-24T05:26:01.080Z,91.72
2019-02-24T05:27:01.103Z,91.91
2019-02-24T05:28:01.134Z,92.33
2019-02-24T05:29:01.154Z,92.24
2019-02-24T05:30:01.176Z,92.05
2019-02-24T05:31:01.197Z,92.52
2019-02-24T05:32:01.221Z,93.56
2019-02-24T05:33:01.248Z,93.75
2019-02-24T05:34:03.890Z,93.56
2019-02-24T05:35:01.296Z,94.22
2019-02-24T05:36:01.367Z,95.54
2019-02-24T05:37:01.338Z,96.68
2019-02-24T05:38:01.369Z,96.11
2019-02-24T05:39:01.387Z,94.79
2019-02-24T05:40:01.411Z,95.26
2019-02-24T05:41:01.434Z,95.17
2019-02-24T05:42:01.456Z,94.22
2019-02-24T05:43:01.513Z,94.79
2019-02-24T05:44:01.504Z,95.36
2019-02-24T05:45:01.529Z,95.54
2019-02-24T05:46:01.554Z,95.83
2019-02-24T05:47:01.577Z,96.21
2019-02-24T05:48:01.599Z,94.98
2019-02-24T05:49:01.620Z,95.31
2019-02-24T05:50:01.643Z,95.31
2019-02-24T05:51:01.666Z,95.03
2019-02-24T05:52:01.691Z,95.03
2019-02-24T05:53:01.713Z,94.70
2019-02-24T05:54:01.736Z,94.65
2019-02-24T05:55:01.761Z,94.13
2019-02-24T05:56:01.796Z,95.21
2019-02-24T05:57:01.807Z,95.40
2019-02-24T05:58:01.830Z,95.50
2019-02-24T05:59:01.855Z,96.35
2019-02-24T06:00:01.881Z,95.87
2019-02-24T06:01:01.900Z,95.97
2019-02-24T06:02:01.923Z,95.12
2019-02-24T06:03:01.947Z,95.12
2019-02-24T06:04:01.969Z,95.59
2019-02-24T06:05:01.996Z,95.97
2019-02-24T06:06:02.021Z,95.50
2019-02-24T06:07:02.055Z,94.93
2019-02-24T06:08:02.066Z,94.84
2019-02-24T06:09:02.092Z,94.27
2019-02-24T06:10:02.112Z,94.37
2019-02-24T06:11:02.133Z,93.70
2019-02-24T06:12:02.155Z,93.89
2019-02-24T06:13:02.179Z,94.27
2019-02-24T06:14:02.205Z,93.70
2019-02-24T06:15:02.229Z,93.23
2019-02-24T06:16:02.248Z,93.70
2019-02-24T06:17:02.274Z,94.18
2019-02-24T06:18:02.294Z,94.18
2019-02-24T06:19:02.318Z,94.18
2019-02-24T06:20:02.343Z,94.56
2019-02-24T06:21:02.365Z,95.31
2019-02-24T06:22:02.387Z,95.21
2019-02-24T06:23:02.411Z,94.93
2019-02-24T06:24:02.435Z,95.21
2019-02-24T06:25:02.459Z,95.21
2019-02-24T06:26:02.480Z,94.93
2019-02-24T06:27:02.505Z,95.12
2019-02-24T06:28:02.527Z,94.93
2019-02-24T06:29:02.551Z,95.87
2019-02-24T06:30:05.400Z,96.35
2019-02-24T06:31:02.601Z,97.58
2019-02-24T06:32:02.620Z,97.58
2019-02-24T06:33:02.642Z,97.01
2019-02-24T06:34:02.665Z,95.87
2019-02-24T06:35:02.690Z,95.50
2019-02-24T06:36:02.713Z,96.06
2019-02-24T06:37:02.735Z,95.78
2019-02-24T06:38:02.759Z,96.16
2019-02-24T06:39:02.806Z,96.73
2019-02-24T06:40:02.805Z,97.01
2019-02-24T06:41:02.830Z,96.91
2019-02-24T06:42:02.853Z,97.39
2019-02-24T06:43:02.876Z,96.91
2019-02-24T06:44:02.899Z,97.10
2019-02-24T06:45:02.924Z,96.63
2019-02-24T06:46:02.949Z,96.25
2019-02-24T06:47:03.023Z,96.63
2019-02-24T06:48:02.992Z,96.44
2019-02-24T06:49:03.018Z,95.97
2019-02-24T06:50:03.039Z,95.31
2019-02-24T06:51:03.061Z,95.31
2019-02-24T06:52:03.085Z,95.50
2019-02-24T06:53:03.107Z,95.31
2019-02-24T06:54:03.130Z,95.31
2019-02-24T06:55:03.153Z,94.84
2019-02-24T06:56:03.175Z,95.12
2019-02-24T06:57:03.222Z,95.31
2019-02-24T06:58:03.223Z,95.03
2019-02-24T06:59:03.248Z,95.26
2019-02-24T07:00:03.472Z,95.26
2019-02-24T07:01:03.301Z,95.36
2019-02-24T07:02:03.317Z,95.17
2019-02-24T07:03:03.341Z,95.36
2019-02-24T07:04:03.364Z,95.17
2019-02-24T07:05:03.386Z,95.36
2019-02-24T07:06:03.410Z,95.17
2019-02-24T07:07:03.435Z,94.79
2019-02-24T07:08:03.458Z,95.26
2019-02-24T07:09:03.484Z,94.22
2019-02-24T07:10:03.503Z,93.94
2019-02-24T07:11:03.528Z,93.66
2019-02-24T07:12:03.552Z,93.66
2019-02-24T07:13:03.574Z,92.99
2019-02-24T07:14:03.598Z,93.18
2019-02-24T07:15:03.622Z,93.09
2019-02-24T07:16:03.647Z,92.90
2019-02-24T07:17:03.668Z,92.52
2019-02-24T07:18:03.696Z,92.24
2019-02-24T07:19:03.739Z,92.19
2019-02-24T07:20:03.741Z,91.72
2019-02-24T07:21:03.765Z,91.43
2019-02-24T07:22:03.817Z,90.58
2019-02-24T07:23:03.812Z,90.30
2019-02-24T07:24:03.837Z,89.45
2019-02-24T07:25:03.882Z,89.45
2019-02-24T07:26:03.884Z,89.26
2019-02-24T07:27:03.909Z,88.50
2019-02-24T07:28:03.934Z,87.27
2019-02-24T07:29:03.958Z,87.04
2019-02-24T07:30:03.982Z,86.75
2019-02-24T07:31:04.007Z,87.51
2019-02-24T07:32:04.031Z,87.23
2019-02-24T07:33:04.055Z,86.56
2019-02-24T07:34:04.084Z,85.99
2019-02-24T07:35:04.105Z,84.95
2019-02-24T07:36:04.130Z,83.91
2019-02-24T07:37:12.604Z,83.25
2019-02-24T07:38:04.179Z,82.87
2019-02-24T07:39:04.205Z,81.83
2019-02-24T07:40:04.228Z,80.69
2019-02-24T07:41:04.255Z,79.98
2019-02-24T07:42:04.280Z,79.50
2019-02-24T07:43:04.308Z,79.03
2019-02-24T07:44:04.331Z,78.65
2019-02-24T07:45:04.361Z,78.94
2019-02-24T07:46:04.380Z,77.33
2019-02-24T07:47:04.407Z,75.85
2019-02-24T07:48:04.433Z,75.09
2019-02-24T07:49:04.457Z,74.05
2019-02-24T07:50:04.482Z,72.92
2019-02-24T07:51:04.508Z,72.25
2019-02-24T07:52:04.534Z,72.06
2019-02-24T07:53:04.559Z,71.97
2019-02-24T07:54:04.585Z,71.88
2019-02-24T07:55:04.612Z,72.48
2019-02-24T07:56:04.638Z,71.53
2019-02-24T07:57:04.663Z,70.78
2019-02-24T07:58:04.706Z,69.92
2019-02-24T07:59:04.717Z,68.79
2019-02-24T08:00:04.741Z,67.65
2019-02-24T08:01:04.768Z,68.63
2019-02-24T08:02:04.793Z,68.82
2019-02-24T08:03:04.820Z,68.15
2019-02-24T08:04:04.846Z,66.35
2019-02-24T08:05:04.872Z,65.03
2019-02-24T08:06:04.898Z,65.22
2019-02-24T08:07:04.925Z,64.36
2019-02-24T08:08:04.952Z,64.11
2019-02-24T08:09:04.977Z,63.86
2019-02-24T08:10:05.004Z,62.12
2019-02-24T08:11:05.031Z,59.36
2019-02-24T08:12:05.060Z,55.44
2019-02-24T08:13:05.085Z,52.19
2019-02-24T08:14:05.114Z,48.88
2019-02-24T08:15:05.139Z,45.58
2019-02-24T08:16:05.167Z,43.21
2019-02-24T08:17:05.194Z,41.61
2019-02-24T08:18:05.221Z,40.77
2019-02-24T08:19:05.250Z,41.36
2019-02-24T08:20:05.280Z,39.37
2019-02-24T08:21:05.374Z,38.41
2019-02-24T08:22:05.334Z,39.31
2019-02-24T08:23:05.363Z,38.24
2019-02-24T08:24:05.391Z,37.51
2019-02-24T08:25:05.419Z,36.01
2019-02-24T08:26:05.448Z,35.05
2019-02-24T08:27:05.477Z,34.20
2019-02-24T08:28:05.543Z,33.24
2019-02-24T08:29:05.534Z,31.98
2019-02-24T08:30:05.564Z,32.09
2019-02-24T08:31:05.593Z,31.24
2019-02-24T08:32:05.625Z,31.05
2019-02-24T08:33:05.654Z,30.87
2019-02-24T08:34:05.683Z,30.19
2019-02-24T08:35:05.713Z,30.29
2019-02-24T08:36:05.744Z,29.93
2019-02-24T08:37:05.780Z,29.54
2019-02-24T08:38:05.805Z,28.56
2019-02-24T08:39:05.836Z,29.15
2019-02-24T08:40:05.869Z,29.43
2019-02-24T08:41:05.898Z,30.36
2019-02-24T08:42:05.929Z,31.62
2019-02-24T08:43:05.960Z,32.01
2019-02-24T08:44:05.993Z,31.15
2019-02-24T08:45:06.025Z,31.16
2019-02-24T08:46:06.058Z,31.45
2019-02-24T08:47:06.088Z,31.35
2019-02-24T08:48:06.121Z,31.53
2019-02-24T08:49:06.152Z,31.20
2019-02-24T08:50:06.185Z,31.35
2019-02-24T08:51:06.218Z,32.67
2019-02-24T08:52:06.251Z,34.08
2019-02-24T08:53:06.282Z,34.77
2019-02-24T08:54:06.318Z,34.56
2019-02-24T08:55:06.349Z,34.56
2019-02-24T08:56:06.383Z,34.94
2019-02-24T08:57:06.415Z,34.37
2019-02-24T08:58:06.449Z,34.08
2019-02-24T08:59:06.483Z,34.37
2019-02-24T09:00:06.518Z,34.58
2019-02-24T09:01:06.551Z,34.26
2019-02-24T09:02:06.585Z,34.29
2019-02-24T09:03:06.619Z,34.00
2019-02-24T09:04:06.653Z,33.80
2019-02-24T09:05:06.687Z,34.56
2019-02-24T09:06:06.722Z,34.58
2019-02-24T09:07:08.526Z,34.10
2019-02-24T09:08:06.792Z,34.56
2019-02-24T09:09:06.826Z,35.06
2019-02-24T09:10:06.861Z,34.02
2019-02-24T09:11:06.897Z,33.33
2019-02-24T09:12:06.933Z,33.91
2019-02-24T09:13:06.967Z,34.10
2019-02-24T09:14:07.002Z,33.99
2019-02-24T09:15:07.243Z,34.43
2019-02-24T09:16:07.131Z,35.39
2019-02-24T09:17:07.109Z,35.33
2019-02-24T09:19:09.830Z,34.83
2019-02-24T09:21:07.308Z,35.75
2019-02-24T09:22:07.319Z,35.85
2019-02-24T09:23:07.348Z,35.60
2019-02-24T09:25:07.401Z,34.93
2019-02-24T09:26:07.462Z,35.58
2019-02-24T09:28:07.529Z,35.61
2019-02-24T09:29:07.544Z,34.58
2019-02-24T09:30:07.582Z,33.09
2019-02-24T09:31:07.618Z,32.33
2019-02-24T09:32:07.656Z,32.51
2019-02-24T09:33:07.691Z,33.06
2019-02-24T09:34:07.728Z,32.97
2019-02-24T09:35:07.767Z,32.89
2019-02-24T09:36:07.804Z,32.89
2019-02-24T09:37:08.043Z,32.42
2019-02-24T09:38:07.878Z,31.93
2019-02-24T09:39:07.917Z,31.93
2019-02-24T09:40:07.954Z,32.51
2019-02-24T09:41:07.992Z,32.23
2019-02-24T09:42:08.030Z,31.37
2019-02-24T09:43:08.067Z,31.46
2019-02-24T09:44:08.107Z,31.58
2019-02-24T09:45:08.145Z,31.53
2019-02-24T09:46:08.207Z,32.39
2019-02-24T09:47:08.222Z,32.79
2019-02-24T09:48:08.262Z,32.41
2019-02-24T09:49:08.299Z,31.84
2019-02-24T09:50:08.338Z,31.56
2019-02-24T09:51:08.427Z,31.85
2019-02-24T09:52:08.416Z,31.59
2019-02-24T09:53:08.458Z,30.74
2019-02-24T09:54:08.496Z,30.29
2019-02-24T09:55:08.533Z,29.79
2019-02-24T09:56:08.575Z,30.05
2019-02-24T09:57:08.612Z,29.77
2019-02-24T09:58:08.652Z,30.87
2019-02-24T09:59:08.695Z,32.98
2019-02-24T10:00:08.732Z,32.98
2019-02-24T10:01:10.965Z,32.81
2019-02-24T10:02:08.811Z,31.46
2019-02-24T10:03:08.853Z,31.10
2019-02-24T10:04:08.893Z,31.46
2019-02-24T10:05:08.931Z,31.46
2019-02-24T10:06:08.973Z,31.59
2019-02-24T10:07:09.012Z,31.56
2019-02-24T10:08:09.053Z,32.76
2019-02-24T10:09:09.092Z,34.20
2019-02-24T10:10:09.133Z,35.52
2019-02-24T10:11:09.172Z,36.38
2019-02-24T10:12:09.215Z,36.51
2019-02-24T10:13:09.259Z,36.15
2019-02-24T10:14:09.294Z,35.38
2019-02-24T10:15:09.335Z,34.73
2019-02-24T10:16:09.375Z,34.84
2019-02-24T10:17:09.415Z,34.09
2019-02-24T10:18:09.457Z,33.21
2019-02-24T10:19:09.496Z,33.88
2019-02-24T10:20:09.537Z,33.40
2019-02-24T10:21:09.577Z,33.44
2019-02-24T10:22:09.618Z,32.97
2019-02-24T10:23:09.658Z,32.23
2019-02-24T10:24:09.699Z,31.54
2019-02-24T10:25:09.741Z,32.47
2019-02-24T10:26:09.781Z,32.18
2019-02-24T10:27:09.821Z,32.30
2019-02-24T10:28:09.871Z,31.24
2019-02-24T10:29:09.903Z,32.01
2019-02-24T10:30:09.945Z,31.72
2019-02-24T10:31:09.995Z,31.62
2019-02-24T10:32:10.030Z,32.12
2019-02-24T10:33:10.076Z,32.38
2019-02-24T10:34:10.110Z,32.21
2019-02-24T10:35:10.156Z,33.05
2019-02-24T10:36:10.192Z,32.20
2019-02-24T10:37:10.233Z,31.61
2019-02-24T10:38:10.276Z,31.16
2019-02-24T10:39:10.318Z,31.93
2019-02-24T10:40:12.374Z,31.46
2019-02-24T10:41:10.403Z,31.16
2019-02-24T10:42:10.443Z,31.37
2019-02-24T10:43:10.488Z,30.79
2019-02-24T10:44:10.533Z,30.77
2019-02-24T10:45:10.572Z,30.52
2019-02-24T10:46:11.436Z,30.49
2019-02-24T10:47:10.657Z,31.53
2019-02-24T10:48:14.061Z,32.10
2019-02-24T10:49:10.739Z,32.59
2019-02-24T10:50:10.782Z,32.15
2019-02-24T10:51:10.825Z,31.01
2019-02-24T10:52:10.868Z,30.43
2019-02-24T10:53:10.909Z,30.05
2019-02-24T10:54:10.953Z,30.11
2019-02-24T10:55:10.997Z,30.24
2019-02-24T10:56:11.040Z,29.86
2019-02-24T10:57:12.969Z,30.04
2019-02-24T10:58:11.124Z,30.08
2019-02-24T10:59:11.166Z,30.97
2019-02-24T11:00:11.236Z,31.15
2019-02-24T11:01:11.252Z,31.37
2019-02-24T11:02:11.296Z,30.79
2019-02-24T11:03:11.339Z,30.73
2019-02-24T11:04:11.382Z,29.57
2019-02-24T11:05:11.424Z,29.66
2019-02-24T11:06:11.478Z,29.49
2019-02-24T11:07:11.510Z,29.58
2019-02-24T11:08:11.554Z,30.53
2019-02-24T11:09:11.597Z,30.07
2019-02-24T11:10:11.640Z,29.32
2019-02-24T11:11:11.683Z,28.58
2019-02-24T11:12:11.727Z,27.60
2019-02-24T11:13:11.771Z,28.07
2019-02-24T11:14:11.814Z,28.14
2019-02-24T11:15:11.858Z,28.28
2019-02-24T11:16:11.901Z,27.68
2019-02-24T11:17:11.947Z,28.20
2019-02-24T11:18:11.988Z,26.84
2019-02-24T11:19:12.033Z,27.94
2019-02-24T11:20:12.076Z,28.03
2019-02-24T11:21:12.125Z,28.51
2019-02-24T11:22:12.164Z,28.51
2019-02-24T11:23:12.209Z,28.97
2019-02-24T11:24:12.255Z,28.51
2019-02-24T11:25:12.499Z,28.23
2019-02-24T11:26:12.340Z,27.94
2019-02-24T11:27:12.408Z,27.70
2019-02-24T11:28:12.429Z,28.62
2019-02-24T11:29:12.473Z,28.97
2019-02-24T11:30:12.517Z,28.92
2019-02-24T11:31:12.564Z,28.39
2019-02-24T11:32:12.606Z,27.04
2019-02-24T11:33:12.649Z,26.44
2019-02-24T11:34:12.698Z,26.82
2019-02-24T11:35:12.740Z,27.00
2019-02-24T11:36:12.784Z,27.97
2019-02-24T11:37:12.830Z,27.59
2019-02-24T11:38:12.873Z,27.12
2019-02-24T11:39:12.922Z,26.35
2019-02-24T11:40:12.962Z,26.45
2019-02-24T11:41:13.006Z,26.26
2019-02-24T11:42:13.051Z,26.62
2019-02-24T11:43:13.097Z,27.57
2019-02-24T11:44:13.141Z,27.11
2019-02-24T11:45:13.185Z,27.02
2019-02-24T11:46:13.231Z,26.84
2019-02-24T11:47:13.277Z,26.48
2019-02-24T11:48:13.322Z,26.39
2019-02-24T11:49:13.366Z,25.96
2019-02-24T11:50:13.416Z,26.40
2019-02-24T11:51:13.457Z,25.62
2019-02-24T11:52:13.501Z,25.71
2019-02-24T11:53:13.545Z,25.52
2019-02-24T11:54:13.590Z,25.44
2019-02-24T11:55:13.635Z,24.97
2019-02-24T11:56:13.681Z,24.90
2019-02-24T11:57:13.725Z,23.58
2019-02-24T11:58:13.771Z,23.10
2019-02-24T11:59:13.817Z,22.69
2019-02-24T12:00:13.864Z,23.33
2019-02-24T12:01:13.906Z,24.03
2019-02-24T12:02:13.952Z,23.53
2019-02-24T12:03:13.997Z,23.61
2019-02-24T12:04:14.043Z,23.77
2019-02-24T12:05:14.090Z,24.39
2019-02-24T12:06:14.133Z,25.46
2019-02-24T12:07:14.180Z,24.46
2019-02-24T12:08:14.224Z,24.76
2019-02-24T12:09:14.270Z,24.61
2019-02-24T12:10:14.316Z,26.10
2019-02-24T12:11:14.360Z,24.66
2019-02-24T12:12:14.408Z,25.34
2019-02-24T12:13:14.471Z,25.36
2019-02-24T12:14:14.496Z,23.91
2019-02-24T12:15:14.544Z,23.64
2019-02-24T12:16:14.586Z,23.26
2019-02-24T12:17:14.629Z,23.46
2019-02-24T12:18:14.700Z,23.24
2019-02-24T12:19:14.748Z,23.75
2019-02-24T12:20:14.767Z,23.37
2019-02-24T12:21:14.815Z,23.16
2019-02-24T12:22:14.857Z,23.13
2019-02-24T12:23:14.903Z,23.55
2019-02-24T12:24:14.949Z,23.48
2019-02-24T12:25:14.994Z,21.93
2019-02-24T12:26:15.039Z,21.98
2019-02-24T12:27:15.099Z,23.23
2019-02-24T12:28:15.133Z,23.33
2019-02-24T12:29:15.178Z,23.14
2019-02-24T12:30:15.222Z,23.07
2019-02-24T12:31:15.272Z,23.01
2019-02-24T12:32:15.320Z,23.80
2019-02-24T12:33:15.360Z,25.66
2019-02-24T12:34:15.407Z,26.37
2019-02-24T12:35:15.476Z,25.68
2019-02-24T12:36:15.524Z,25.14
2019-02-24T12:37:17.449Z,24.84
2019-02-24T12:38:15.631Z,25.24
2019-02-24T12:39:15.640Z,24.77
2019-02-24T12:40:15.688Z,24.56
2019-02-24T12:41:15.731Z,25.90
2019-02-24T12:42:15.777Z,24.67
2019-02-24T12:43:15.824Z,25.05
2019-02-24T12:44:15.893Z,24.40
2019-02-24T12:45:15.916Z,23.76
2019-02-24T12:46:15.963Z,23.24
2019-02-24T12:47:16.010Z,23.07
2019-02-24T12:48:16.482Z,23.24
2019-02-24T12:49:16.102Z,23.43
2019-02-24T12:50:16.151Z,23.36
2019-02-24T12:51:16.196Z,23.02
2019-02-24T12:52:16.267Z,23.63
2019-02-24T12:53:16.291Z,23.36
2019-02-24T12:54:16.335Z,24.78
2019-02-24T12:55:16.403Z,24.41
2019-02-24T12:56:16.455Z,23.64
2019-02-24T12:57:16.705Z,23.03